Timeline UpdatesTrip UpdatesNews PostsPvt PostsTravel TipsAdmin PostsConv PostsFollowed PostsChat RequestsBlog PostsPNR Posts

Disclaimer
Search
 
 
Fri Aug 1, 2014 11:17:24 ISTHomeTrainsΣChainsAtlasPNRForumGalleryNewsFAQTripsMembersLoginFeedback
No Recent News for this Train
Other Trains in the News **new
Latest...
.
Sat Sep 10, 2011 (03:37PM)
⇐ Return Journey: Train# 11464

11463/Somnath-Jabalpur Express

Jul 02 2013 (6:48PM)
Change Departure Station:
Change Arrival Station:
Post a Train Travel TipPost a Train Travel Tip **new
Post a Comment/Question/Picture/VideoPost a Comment/Question/Picture/Video
Pantry/Catering
✕ NO Pantry Car
✓ Catering Avbl
There is NO Pantry.; CATERING AVAILABLE. Food served at Jetalsar.
Loco/Rake Reversals
BRC/Vadodara Junction (7); ET/Itarsi Junction (7);
RSA - Rake Sharing
Has RSA with 11465/11466 Somnath-Jabalpur Express.
Rake/Coach Composition
LOCO(Diesel)-SLR/LD-GEN-GEN-S11-S10-S9-S8-S7-S6-S5-S4-S3-S2-S1-B3-B2-B1-A1-GEN-SLR;
Loco
WDM 2/3 of Ratlam Shed. & WAp4ET
News    PNR    Forum    Time-Table    Availability    Fare Chart    Map    Arr/Dep History    Trips    Gallery    ΣChains    X/O    Timeline    
Travel Time: 9h 18m    -2 halts    Distance: 440 km    Avg Speed: 47 km/hr
Type: Mail/Express
Zone: WCR/West Central
Departs @ 09:30 (Avg 2m late)
Platform# 1
S TWTF 
Somnath/SMNH 
Arrives @ 18:48
Platform# ???
S TWTF 
Maninagar/MAN 

-2 halts. 63 intermediate Stations between Somnath and Maninagar

Show ALL intermediate Stations  Show Old Time-Table

#CodeStation NameX/OArrivesAvgDepartsAvgHaltPFDay#KmSpeedElevZoneAddress
1SMNHSomnath (2)  -09:30+2110.03012mWRSomnath, Gujarat
2VRLVeraval (5)X  09:40+309:50+310m115.1608mWRVeraval, Gujarat
3MLHAMaliya Hatina (2)X  10:20+1610:22+152m--135.26454mWRMalia, Gujarat
4KSDKeshod (2)  10:37+2010:39+202m1151.34446mWRKeshod, Gujarat
5JNDJunagadh Junction (5)  11:27+2011:29+212m--186.85886mWRJunagadh, Gujarat
6JLRJetalsar Junction (5)  11:56+2212:04+238m--1112.739108mWRRajkot, Gujarat
7VRRVirpur (2)  12:34+1512:36+142m--1132.262121mWRRajkot, Gujarat
8GDLGondal (3)  12:52+1512:54+142m11148.843141mWRGondal, Gujarat
9BKNGBhakti Nagar (3)  13:43+213:45+112m11184.128142mWRRajkot, Gujarat
10RJTRajkot Junction (5)  13:58+1114:03+145m11190.270128mWRRajkot, Gujarat
11WKRWankaner Junction (4)X  14:39+2514:41+272m--1231.95587mWRWankaner, Gujarat
12THANThan Junction (3)  15:10+2515:12+252m11258.567138mWRThangadh, Gujarat
13SUNRSurendranagar Junction (4)X  15:55+2315:57+242m--1306.25372mWRSurendra Nagar, Gujarat
14VGViramgam Junction (5)  17:11+1317:13+142m--1371.75529mWRViramgam, Gujarat
15ADIAhmedabad Junction (12)X  18:25+1718:45+1320m41437.15651mWRAhmedabad, Gujarat
16MHDMahemdavad Kheda Road (4)  19:15+2819:17+282m21465.17537mWRMahemdavad, Gujarat
17NDNadiad Junction (4)  19:31+3019:33+302m11482.76237mWRNadiad, Gujarat
18ANNDAnand Junction (6)X  19:51+3119:53+312m11501.25144mWRAnand, Gujarat
19BRCVadodara Junction (7)XO20:35+2921:00+3425m41536.9-36mWRVadodara 390005, Gujarat
20DRLDerolXO  21:20+2:1521:42+1:5422m11587.23181mWRKalol, Gujarat
21GDAGodhra Junction (3)X  22:28+1622:30+172m21610.880122mWRGodhra, Gujarat
22DHDDahod (3)  23:25+5623:27+562m--1683.990313mWRDahod, Gujarat
23MGNMeghnagar (3)  23:49+1:0523:51+1:052m--1717.046317mWRJhabua, Madhya Pradesh
24RTMRatlam Junction (7)X  01:35+3301:50+3615m52797.375495mWRRatlam, Madhya Pradesh
25KUHKhachrod (2)  02:12+4602:14+482m--2825.046497mWRUjjain, Madhya Pradesh
26NADNagda Junction (4)O  02:32+4002:35+443m--2838.851468mWRNagda, Madhya Pradesh
27UJNUjjain Junction (8)  03:40+3903:50+5110m--2894.476492mWRUjjain 456001, Madhya Pradesh
28TANTarana RoadO  04:15+1:0204:17+1:012m--2925.921498mWRMaksi, Madhya Pradesh
29MKCMaksi Junction (3)X  04:45+4704:47+472m--2935.481513mWRMakshi, Madhya Pradesh
30BCHBerchha (2)  05:01+5305:03+532m--2954.366490mWRShajapur, Madhya Pradesh
31KSHKali Sindh (2)  05:14+5205:16+512m--2966.572443mWRShajapur, Madhya Pradesh
32AKDAkodia (2)  05:31+5105:33+522m12984.456460mWRDist. Shajapur, Madhya Pradesh
33SJPShujalpur (3)X  05:47+5105:49+512m--2997.463453mWRShujalpur, Madhya Pradesh
34KPPKalapipal (2)  06:01+5106:03+512m121010.070487mWRState Highway 41, Madhya Pradesh
35PRBParbati (2)  06:16+5306:18+522m--21025.264472mWRSehore, Madhya Pradesh
36SEHSehore (2)X  06:31+5206:33+522m221039.118500mWRMP 466001, Madhya Pradesh
37BIHBairagarh (2)08:08+308:10+62m221067.531522mWRBhopal, Madhya Pradesh
38BPLBhopal Junction (6)X  08:30+1908:35+315m421077.838497mWCRBhopal, Madhya Pradesh
39HBJBhopal HabibGanj (5)  08:45+3408:47+342m421084.061496mWCRHabibGanj, Madhya Pradesh
40HBDHoshangabad (2)X  09:53+3509:55+352m--21151.431308mWCRHoshangabad, Madhya Pradesh
41ETItarsi Junction (7)X10:30+2410:45+2515m221169.571329mWCRItarsi 461111, Madhya Pradesh
42SGPSohagpur (2)X11:27+5511:29+592m--21219.076340mWCRSohagpur, Madhya Pradesh
43PPIPipariya (3)X  11:43+5911:45+1:002m121236.790338mWCRPiparia, Madhya Pradesh
44GARGadarwara (2)  12:18+1:1112:20+1:112m121286.158352mWCRNarsinghpur, Madhya Pradesh
45KYKareli (2)XO  12:49+1:0612:51+1:072m121314.132361mWCRKareli, Madhya Pradesh
46NUNarsinghpur (2)  13:22+5113:24+512m121330.455365mWCRNarsimhapur, Madhya Pradesh
47SRIDShridham (3)X  13:58+4414:00+442m221361.473373mWCRShridham, Madhya Pradesh
48MMLMadan Mahal (3)  14:41+3914:43+392m321411.28428mWCRJabalpur, Madhya Pradesh
49JBPJabalpur Junction (4)  15:10+22-421414.7-416mWCRJabalpur, Madhya Pradesh
Scroll to Top
Scroll to Bottom